CheckWX is a tool to help pilots better visualize weather data.  It is not intended as a substitute for an official pre-flight weather briefing.

14:20:07 UTC

KHLX METAR
Twin County Airport
Galax Hillsville, Virginia, USA
Current

25 mins ago

KHLX 191355Z AUTO 35010KT 10SM CLR 03/00 A3029 RMK AO2 T00261002
Observed
Feb-19 @ 13:55 UTC
Wind
  • 350° at 10 KTS
Visibility
10 SM
Flight Rules
VFR
Cloud Levels
  • Clear skies
Temperature
C / 37°F
Dewpoint
-0°C / 32°F
Humidity
81%
Altimeter
30.29" Hg
Pressure
1025.72 hPa
Previous

45 mins ago

KHLX 191335Z AUTO 35011G16KT 10SM CLR 03/00 A3027 RMK AO2 T00251001
Observed
Feb-19 @ 13:35 UTC
Wind
  • 350° at 11 KTS
  • Gusting to 16 KTS
Visibility
10 SM
Flight Rules
VFR
Cloud Levels
  • Clear skies
Temperature
C / 37°F
Dewpoint
-0°C / 32°F
Humidity
81%
Altimeter
30.27" Hg
Pressure
1025.02 hPa
Previous

1 hour ago

KHLX 191315Z AUTO 34012G16KT 10SM CLR 02/00 A3025 RMK AO2 T00230000
Observed
Feb-19 @ 13:15 UTC
Wind
  • 340° at 12 KTS
  • Gusting to 16 KTS
Visibility
10 SM
Flight Rules
VFR
Cloud Levels
  • Clear skies
Temperature
C / 36°F
Dewpoint
C / 32°F
Humidity
87%
Altimeter
30.25" Hg
Pressure
1024.42 hPa